YAYEYBHM

Guest
Details From YAYE - Ayers Rock/connellan
To YBHM - Hamilton Island
Flight Number -
Tags Routegen
Created
Modified
Stats Distance 1,078 nm / 1,996 km
Max Altitude 0 ft / 0 m
Waypoints 9
Social Downloads 4
Likes 0
Share VATSIM

Download

Looking for another format? Having issues loading an existing format? Contact us
Advertisement - Login to hide

Notes

None

Route

YAYE -25.09_+130.84 -24.97_+130.95 DESET -23.56_+138.06 -22.62_+141.54 -21.62_+144.97 -20.00_+148.67 YBHM

ID Type Via Altitude (ft/m) Position (lat/lon) Dist (leg/tot) Name
O YAYE APT - 0 / 0 -25.17809 / 130.96671 - / 0 nm
-25.09_+130.84 DME - 0 / 0 -25.08564 / 130.84371 8 / 8 nm
-24.97_+130.95 DME - 0 / 0 -24.97421 / 130.94544 8 / 17 nm
DESET FIX - 0 / 0 -24.84500 / 134.77000 208 / 225 nm
-23.56_+138.06 DME - 0 / 0 -23.55540 / 138.06266 196 / 422 nm
-22.62_+141.54 DME - 0 / 0 -22.62457 / 141.54227 200 / 622 nm
-21.62_+144.97 DME - 0 / 0 -21.61975 / 144.97326 200 / 822 nm
-20.00_+148.67 DME - 0 / 0 -20.00405 / 148.66907 229 / 1051 nm
O YBHM APT - 0 / 0 -20.35134 / 148.94672 26 / 1077 nm

Altitude Profile

Advertisement - Login to hide

Weather


0- 5 10 15 20 25 30 35+ Temperature / °C

Clouds and Precipitation
Forecast for 2018-10-19 00:00 UTC. Updated 4 hours ago

Ground ~20,000 ft ~40,000 ft Winds

YAYE

Details ICAO YAYE (AYQ)
Name Ayers Rock
Region Australia
Timezone Australia/Darwin (UTC+9.5)
Stats Elevation 1,625 ft / 495 m (AMSL)
Location -25.185600° 130.977000°
Runways 1
Magnetic Variation 3.882° E

METAR

YAYE 190100Z AUTO 29016KT 9999 // NCD 33/12 Q1011

Decode

TAF

Not found

Departure Runways

ID Width Length Bearing (true/mag) Surface Threshold Overrun Markings Lighting
13 98 ft / 30 m 8,535 ft / 2,601 m 129.70° / 125.82° ASPHALT 0 ft / 0 m 0 ft / 0 m PREC-APP EDGE THRESHOLD ALSF-II
31 98 ft / 30 m 8,535 ft / 2,601 m 309.69° / 305.81° ASPHALT 0 ft / 0 m 0 ft / 0 m PREC-APP EDGE THRESHOLD ALSF-II

YBHM

Details ICAO YBHM (HTI)
Name Hamilton I.
Region Australia
Timezone Australia/Lindeman (UTC+10.0)
Stats Elevation 14 ft / 4 m (AMSL)
Location -20.357500° 148.952000°
Runways 1
Magnetic Variation 8.143° E

METAR

YBHM 190130Z AUTO 13013KT 9999 // BKN022 26/20 Q1016 RF00.0/000.0

Decode

TAF

TAF AMD YBHM 182022Z 1820/1906 13014KT 9999 SCT018 FM190000 12016KT 9999 SCT020

Decode

Destination Runways

ID Width Length Bearing (true/mag) Surface Threshold Overrun Markings Lighting
14 151 ft / 46 m 5,596 ft / 1,706 m 143.03° / 134.89° ASPHALT 0 ft / 0 m 0 ft / 0 m PREC-APP CENTERLINE EDGE THRESHOLD
32 151 ft / 46 m 5,596 ft / 1,706 m 323.03° / 314.88° ASPHALT 0 ft / 0 m 0 ft / 0 m PREC-APP CENTERLINE EDGE THRESHOLD